Time;durP1;ratioP1;P1;durP2;ratioP2;P2;SDS_P1;SDS_P2;PMS_P1;PMS_P2;Temp;Humidity;BMP_temperature;BMP_pressure;BME280_temperature;BME280_humidity;BME280_pressure;Samples;Min_cycle;Max_cycle;Signal;HPM_P1;HPM_P2
2022/11/30 00:00:34;;;;;;;66.40;28.80;;;2.70;99.90;;;;;;5079832;28;20028;-80
2022/11/30 00:02:59;;;;;;;76.50;32.33;;;2.70;99.90;;;;;;5061950;28;20027;-80
2022/11/30 00:05:25;;;;;;;69.72;31.83;;;2.70;99.90;;;;;;5062426;28;20048;-80
2022/11/30 00:07:53;;;;;;;68.78;30.15;;;2.70;99.90;;;;;;5062399;28;20068;-80
2022/11/30 00:10:19;;;;;;;70.13;30.23;;;2.70;99.90;;;;;;5082630;28;20048;-80
2022/11/30 00:12:45;;;;;;;80.15;32.70;;;2.60;99.90;;;;;;5065998;28;20117;-79
2022/11/30 00:15:13;;;;;;;70.20;31.02;;;2.60;99.90;;;;;;5084095;28;20044;-79
2022/11/30 00:17:43;;;;;;;71.35;30.65;;;2.60;99.90;;;;;;5065404;28;20036;-79
2022/11/30 00:20:09;;;;;;;73.80;31.38;;;2.60;99.90;;;;;;5083748;28;20029;-79
2022/11/30 00:22:35;;;;;;;73.22;31.60;;;2.60;99.90;;;;;;5083266;28;20017;-79
2022/11/30 00:25:03;;;;;;;72.43;31.27;;;2.60;99.90;;;;;;5064142;28;20066;-80
2022/11/30 00:27:30;;;;;;;78.30;32.03;;;2.60;99.90;;;;;;5065428;28;20036;-79
2022/11/30 00:29:56;;;;;;;74.20;32.25;;;2.60;99.90;;;;;;5083401;28;20020;-80
2022/11/30 00:32:22;;;;;;;72.57;32.13;;;2.60;99.90;;;;;;5082715;28;20050;-79
2022/11/30 00:34:47;;;;;;;74.88;32.50;;;2.70;99.90;;;;;;5064393;28;20032;-79
2022/11/30 00:37:13;;;;;;;83.65;32.95;;;2.60;99.90;;;;;;5065035;28;20031;-79
2022/11/30 00:39:39;;;;;;;80.25;33.60;;;2.60;99.90;;;;;;5064911;28;20024;-80
2022/11/30 00:42:05;;;;;;;74.15;31.52;;;2.60;99.90;;;;;;5080338;28;20024;-79
2022/11/30 00:44:31;;;;;;;76.78;32.03;;;2.60;99.90;;;;;;5061208;28;20032;-79
2022/11/30 00:46:56;;;;;;;77.93;32.33;;;2.50;99.90;;;;;;5061680;28;20484;-80
2022/11/30 00:49:22;;;;;;;76.28;31.17;;;2.50;99.90;;;;;;5080027;28;20025;-79
2022/11/30 00:51:48;;;;;;;75.05;31.75;;;2.50;99.90;;;;;;5062931;28;20031;-80
2022/11/30 00:54:13;;;;;;;77.10;33.67;;;2.50;99.90;;;;;;5059701;28;20028;-80
2022/11/30 00:56:39;;;;;;;84.90;34.33;;;2.50;99.90;;;;;;5063046;28;20051;-80
2022/11/30 00:59:05;;;;;;;78.38;33.67;;;2.50;99.90;;;;;;5064671;28;20055;-80
2022/11/30 01:01:31;;;;;;;80.78;32.65;;;2.50;99.90;;;;;;5081392;28;20031;-79
2022/11/30 01:03:57;;;;;;;76.07;32.85;;;2.50;99.90;;;;;;5081011;28;20453;-79
2022/11/30 01:06:22;;;;;;;86.00;33.25;;;2.50;99.90;;;;;;5080991;28;20031;-80
2022/11/30 01:08:49;;;;;;;80.45;33.92;;;2.40;99.90;;;;;;5083329;28;20131;-80
2022/11/30 01:11:20;;;;;;;73.95;32.33;;;2.40;99.90;;;;;;5066496;28;20056;-79
2022/11/30 01:13:45;;;;;;;81.10;33.28;;;2.50;99.90;;;;;;5085315;28;20035;-79
2022/11/30 01:16:14;;;;;;;72.38;32.67;;;2.60;99.90;;;;;;5084266;28;20028;-79
2022/11/30 01:18:42;;;;;;;83.55;35.03;;;2.50;99.90;;;;;;5065362;28;20028;-79
2022/11/30 01:21:09;;;;;;;91.45;34.30;;;2.50;99.90;;;;;;5081579;28;20104;-79
2022/11/30 01:23:35;;;;;;;80.80;34.47;;;2.40;99.90;;;;;;5080855;28;20107;-79
2022/11/30 01:26:01;;;;;;;80.35;33.60;;;2.40;99.90;;;;;;5080807;28;20064;-79
2022/11/30 01:28:26;;;;;;;86.90;34.80;;;2.40;99.90;;;;;;5084122;28;20032;-79
2022/11/30 01:31:00;;;;;;;82.18;33.85;;;2.40;99.90;;;;;;5066264;28;20024;-79
2022/11/30 01:33:26;;;;;;;82.38;35.25;;;2.50;99.90;;;;;;5068012;28;20033;-79
2022/11/30 01:36:01;;;;;;;75.85;33.42;;;2.50;99.90;;;;;;5068439;28;20032;-79
2022/11/30 01:38:50;;;;;;;74.60;31.75;;;2.50;99.90;;;;;;5068232;28;20040;-79
2022/11/30 01:41:25;;;;;;;82.07;34.45;;;2.60;99.90;;;;;;5085568;28;20047;-78
2022/11/30 01:43:56;;;;;;;85.90;35.58;;;2.60;99.90;;;;;;5067028;28;20106;-78
2022/11/30 01:46:27;;;;;;;81.63;34.42;;;2.60;99.90;;;;;;5065493;28;20024;-79
2022/11/30 01:49:01;;;;;;;87.40;35.25;;;2.60;99.90;;;;;;5085625;28;20042;-79
2022/11/30 01:51:41;;;;;;;85.30;35.38;;;2.60;99.90;;;;;;5067736;28;20029;-79
2022/11/30 01:54:09;;;;;;;82.72;34.97;;;2.60;99.90;;;;;;5066241;28;20028;-78
2022/11/30 01:56:38;;;;;;;80.47;35.55;;;2.60;99.90;;;;;;5065917;28;20141;-79
2022/11/30 01:59:04;;;;;;;82.47;35.78;;;2.60;99.90;;;;;;5065420;28;20120;-79
2022/11/30 02:01:30;;;;;;;80.82;36.22;;;2.50;99.90;;;;;;5065220;28;20474;-79
2022/11/30 02:04:05;;;;;;;83.63;34.78;;;2.50;99.90;;;;;;5067776;28;20035;-79
2022/11/30 02:06:31;;;;;;;87.95;35.08;;;2.60;99.90;;;;;;5090130;28;20094;-79
2022/11/30 02:08:57;;;;;;;78.72;34.13;;;2.50;99.90;;;;;;5089250;28;20048;-78
2022/11/30 02:11:24;;;;;;;79.30;34.35;;;2.50;99.90;;;;;;5072084;28;20537;-78
2022/11/30 02:13:52;;;;;;;80.28;33.78;;;2.60;99.90;;;;;;5071605;28;20377;-79
2022/11/30 02:16:45;;;;;;;86.00;35.55;;;2.60;99.90;;;;;;5070120;28;20360;-79
2022/11/30 02:19:36;;;;;;;76.47;32.53;;;2.60;99.90;;;;;;5068641;28;20028;-79
2022/11/30 02:22:09;;;;;;;78.82;33.75;;;2.60;99.90;;;;;;5085429;28;20020;-79
2022/11/30 02:25:12;;;;;;;77.72;32.65;;;2.50;99.90;;;;;;5068384;28;20399;-79
2022/11/30 02:28:14;;;;;;;83.05;34.40;;;2.50;99.90;;;;;;5067634;28;20033;-79
2022/11/30 02:30:42;;;;;;;82.03;33.83;;;2.50;99.90;;;;;;5067164;28;20369;-79
2022/11/30 02:33:13;;;;;;;77.82;33.97;;;2.50;99.90;;;;;;5067525;28;20117;-79
2022/11/30 02:35:43;;;;;;;77.43;33.92;;;2.50;99.90;;;;;;5089282;28;20032;-80
2022/11/30 02:38:09;;;;;;;77.35;32.92;;;2.50;99.90;;;;;;5088564;28;20028;-80
2022/11/30 02:40:35;;;;;;;83.88;33.53;;;2.50;99.90;;;;;;5089278;28;20081;-79
2022/11/30 02:43:03;;;;;;;80.75;34.65;;;2.50;99.90;;;;;;5068615;28;20028;-79
2022/11/30 02:45:59;;;;;;;81.60;35.22;;;2.50;99.90;;;;;;5088970;28;20024;-79
2022/11/30 02:48:38;;;;;;;87.05;33.17;;;2.50;99.90;;;;;;5068843;28;20041;-79
2022/11/30 02:51:07;;;;;;;77.85;33.35;;;2.50;99.90;;;;;;5087574;28;20028;-79
2022/11/30 02:53:33;;;;;;;76.55;32.95;;;2.50;99.90;;;;;;5070487;28;20460;-79
2022/11/30 02:55:58;;;;;;;75.38;33.63;;;2.50;99.90;;;;;;5086945;28;20074;-79
2022/11/30 02:58:24;;;;;;;72.10;33.15;;;2.50;99.90;;;;;;5086768;28;20040;-79
2022/11/30 03:00:50;;;;;;;77.68;32.58;;;2.50;99.90;;;;;;5086015;28;20024;-80
2022/11/30 03:03:15;;;;;;;79.03;34.88;;;2.50;99.90;;;;;;5066109;28;20028;-79
2022/11/30 03:05:41;;;;;;;80.18;34.22;;;2.40;99.90;;;;;;5066058;28;20032;-80
2022/11/30 03:08:07;;;;;;;79.25;34.78;;;3.80;99.90;;;;;;5083729;28;20111;-79
2022/11/30 03:10:32;;;;;;;85.40;34.10;;;2.50;99.90;;;;;;5064430;28;20052;-79
2022/11/30 03:12:59;;;;;;;79.40;33.55;;;2.90;99.90;;;;;;5080423;28;20095;-79
2022/11/30 03:15:25;;;;;;;78.45;34.72;;;2.50;99.90;;;;;;5061534;28;20025;-78
2022/11/30 03:17:50;;;;;;;74.25;33.78;;;2.50;99.90;;;;;;5077277;28;20033;-79
2022/11/30 03:20:16;;;;;;;79.32;33.90;;;2.40;99.90;;;;;;5059292;28;20024;-79
2022/11/30 03:22:42;;;;;;;83.35;36.33;;;2.30;99.90;;;;;;5059093;28;20123;-79
2022/11/30 03:25:08;;;;;;;81.20;34.38;;;2.30;99.90;;;;;;5060837;28;20024;-79
2022/11/30 03:27:34;;;;;;;81.03;34.47;;;2.30;99.90;;;;;;5077564;28;20037;-79
2022/11/30 03:30:00;;;;;;;83.45;34.88;;;2.30;99.90;;;;;;5060278;28;20035;-79
2022/11/30 03:32:25;;;;;;;88.50;35.58;;;2.30;99.90;;;;;;5058884;28;20020;-79
2022/11/30 03:34:51;;;;;;;83.78;34.78;;;2.30;99.90;;;;;;5076369;28;20052;-79
2022/11/30 03:37:17;;;;;;;86.95;36.83;;;2.30;99.90;;;;;;5076479;28;20029;-78
2022/11/30 03:39:43;;;;;;;88.60;36.85;;;2.30;99.90;;;;;;5058848;28;20029;-79
2022/11/30 03:42:08;;;;;;;88.10;35.72;;;2.30;99.90;;;;;;5058532;28;20024;-79
2022/11/30 03:44:34;;;;;;;82.55;34.63;;;2.30;99.90;;;;;;5076903;28;20103;-79
2022/11/30 03:47:00;;;;;;;82.00;35.78;;;2.30;99.90;;;;;;5059619;28;20124;-80
2022/11/30 03:49:26;;;;;;;86.22;33.38;;;2.40;99.90;;;;;;5060446;28;20056;-79
2022/11/30 03:51:51;;;;;;;83.80;35.28;;;2.40;99.90;;;;;;5077830;28;20060;-79
2022/11/30 03:54:17;;;;;;;83.78;34.72;;;2.40;99.90;;;;;;5060174;28;20079;-79
2022/11/30 03:56:43;;;;;;;81.80;33.08;;;2.40;99.90;;;;;;5078103;28;20107;-79
2022/11/30 03:59:08;;;;;;;88.53;35.00;;;2.40;99.90;;;;;;5060141;28;20029;-79
2022/11/30 04:01:35;;;;;;;94.60;36.63;;;2.40;99.90;;;;;;5077442;28;20024;-79
2022/11/30 04:04:01;;;;;;;88.50;36.17;;;2.40;99.90;;;;;;5078356;28;20063;-78
2022/11/30 04:06:27;;;;;;;92.22;38.28;;;2.40;99.90;;;;;;5078611;28;20404;-79
2022/11/30 04:08:52;;;;;;;87.20;36.05;;;2.40;99.90;;;;;;5077121;28;20048;-79
2022/11/30 04:11:18;;;;;;;88.43;35.58;;;2.50;99.90;;;;;;5059417;28;20028;-79
2022/11/30 04:13:44;;;;;;;93.00;36.50;;;2.40;99.90;;;;;;5062067;28;20448;-79
2022/11/30 04:16:10;;;;;;;91.20;37.67;;;2.40;99.90;;;;;;5077659;28;20049;-79
2022/11/30 04:18:37;;;;;;;85.88;36.10;;;2.40;99.90;;;;;;5060856;28;20028;-79
2022/11/30 04:21:04;;;;;;;86.93;36.08;;;2.40;99.90;;;;;;5061288;28;20033;-79
2022/11/30 04:23:32;;;;;;;90.43;38.22;;;2.50;99.90;;;;;;5060065;28;20025;-79
2022/11/30 04:25:58;;;;;;;94.00;35.67;;;2.50;99.90;;;;;;5060033;28;20479;-77
2022/11/30 04:28:23;;;;;;;86.80;37.40;;;2.50;99.90;;;;;;5078640;28;20036;-79
2022/11/30 04:30:49;;;;;;;90.90;34.85;;;2.40;99.90;;;;;;5060769;28;20031;-79
2022/11/30 04:33:15;;;;;;;85.18;36.92;;;2.40;99.90;;;;;;5077184;28;20103;-79
2022/11/30 04:35:44;;;;;;;83.18;35.30;;;2.40;99.90;;;;;;5060407;28;20024;-79
2022/11/30 04:38:09;;;;;;;88.38;35.20;;;2.30;99.90;;;;;;5077343;28;20070;-79
2022/11/30 04:40:41;;;;;;;83.25;35.25;;;2.30;99.90;;;;;;5077158;28;20028;-79
2022/11/30 04:43:08;;;;;;;78.95;33.85;;;2.30;99.90;;;;;;5060608;28;20047;-80
2022/11/30 04:45:34;;;;;;;88.85;36.22;;;2.30;99.90;;;;;;5061440;28;20028;-80
2022/11/30 04:48:00;;;;;;;79.25;33.45;;;2.30;99.90;;;;;;5079367;28;20061;-79
2022/11/30 04:50:25;;;;;;;87.95;35.40;;;2.30;99.90;;;;;;5060399;28;20036;-79
2022/11/30 04:52:51;;;;;;;89.45;34.60;;;2.20;99.90;;;;;;5059365;28;20025;-79
2022/11/30 04:55:18;;;;;;;82.63;34.10;;;2.20;99.90;;;;;;5058886;28;20032;-79
2022/11/30 04:57:45;;;;;;;87.55;36.45;;;2.20;99.90;;;;;;5076989;28;20035;-80
2022/11/30 05:00:12;;;;;;;85.65;35.80;;;2.30;99.90;;;;;;5059528;28;20029;-80
2022/11/30 05:02:37;;;;;;;79.15;34.33;;;2.20;99.90;;;;;;5077792;28;20060;-80
2022/11/30 05:05:03;;;;;;;81.90;34.55;;;2.20;99.90;;;;;;5078381;28;20031;-79
2022/11/30 05:07:29;;;;;;;82.22;34.65;;;2.20;99.90;;;;;;5083130;28;20080;-78
2022/11/30 05:09:55;;;;;;;88.88;35.95;;;2.20;99.90;;;;;;5082788;28;20094;-79
2022/11/30 05:12:20;;;;;;;89.43;34.70;;;2.20;99.90;;;;;;5068329;28;20031;-79
2022/11/30 05:14:46;;;;;;;94.15;36.22;;;2.20;99.90;;;;;;5086775;28;20028;-80
2022/11/30 05:17:12;;;;;;;89.70;35.63;;;2.10;99.90;;;;;;5066278;28;20025;-78
2022/11/30 05:19:37;;;;;;;89.20;34.88;;;2.40;99.90;;;;;;5062908;28;20032;-80
2022/11/30 05:22:03;;;;;;;87.90;35.28;;;2.20;99.90;;;;;;5087538;28;20008;-80
2022/11/30 05:24:28;;;;;;;89.28;34.22;;;2.20;99.90;;;;;;5063906;28;20357;-77
2022/11/30 05:26:54;;;;;;;92.97;37.75;;;2.20;99.90;;;;;;5088861;28;20032;-82
2022/11/30 05:29:20;;;;;;;87.50;36.28;;;2.20;99.90;;;;;;5105763;22;20391;-68
2022/11/30 05:31:45;;;;;;;89.28;34.40;;;2.30;99.90;;;;;;5118576;22;20089;-79
2022/11/30 05:34:11;;;;;;;87.55;34.97;;;2.30;99.90;;;;;;5025413;28;20030;-77
2022/11/30 05:36:37;;;;;;;91.50;35.58;;;2.30;99.90;;;;;;5021025;28;20006;-80
2022/11/30 05:39:03;;;;;;;94.32;36.63;;;2.30;99.90;;;;;;5019232;28;20052;-78
2022/11/30 05:41:28;;;;;;;88.35;34.75;;;2.30;99.90;;;;;;5023999;28;20041;-81
2022/11/30 05:43:55;;;;;;;88.53;35.15;;;2.30;99.90;;;;;;5026186;28;20022;-79
2022/11/30 05:46:20;;;;;;;91.63;36.00;;;2.40;99.90;;;;;;5023513;28;20378;-80
2022/11/30 05:48:46;;;;;;;93.60;35.78;;;2.30;99.90;;;;;;5020360;28;20025;-78
2022/11/30 05:51:14;;;;;;;89.28;36.10;;;2.40;99.90;;;;;;5023012;28;20456;-80
2022/11/30 05:53:40;;;;;;;89.15;36.85;;;2.30;99.90;;;;;;5030788;28;20145;-81
2022/11/30 05:56:09;;;;;;;91.65;38.67;;;2.40;99.90;;;;;;5031990;28;20030;-81
2022/11/30 05:58:35;;;;;;;93.80;36.47;;;2.40;99.90;;;;;;5032430;28;20032;-81
2022/11/30 06:01:01;;;;;;;90.63;36.83;;;2.40;99.90;;;;;;5032127;28;20093;-81
2022/11/30 06:03:31;;;;;;;89.30;35.97;;;2.40;99.90;;;;;;5032469;28;20033;-81
2022/11/30 06:05:57;;;;;;;90.95;37.83;;;2.40;99.90;;;;;;5032981;28;20419;-82
2022/11/30 06:08:25;;;;;;;92.38;38.08;;;2.40;99.90;;;;;;5031291;28;20039;-82
2022/11/30 06:10:51;;;;;;;108.45;39.08;;;2.40;99.90;;;;;;5033944;28;20034;-82
2022/11/30 06:13:17;;;;;;;95.00;38.20;;;2.40;99.90;;;;;;5033101;28;20044;-82
2022/11/30 06:15:42;;;;;;;93.53;36.78;;;2.40;99.90;;;;;;5036032;28;20089;-82
2022/11/30 06:18:12;;;;;;;85.80;36.17;;;2.40;99.90;;;;;;5035017;28;20036;-82
2022/11/30 06:20:38;;;;;;;87.68;37.08;;;2.40;99.90;;;;;;5036338;28;20098;-82
2022/11/30 06:23:04;;;;;;;87.78;36.40;;;2.40;99.90;;;;;;5040003;28;20018;-82
2022/11/30 06:25:30;;;;;;;96.68;38.92;;;2.50;99.90;;;;;;5040108;28;20060;-82
2022/11/30 06:27:56;;;;;;;92.07;38.95;;;2.50;99.90;;;;;;5040356;28;20045;-83
2022/11/30 06:30:22;;;;;;;98.18;41.17;;;2.50;99.90;;;;;;5040704;28;20010;-82
2022/11/30 06:32:49;;;;;;;98.53;39.35;;;2.50;99.90;;;;;;5040539;28;20110;-81
2022/11/30 06:35:15;;;;;;;99.85;40.50;;;2.50;99.90;;;;;;5040068;28;20014;-81
2022/11/30 06:37:41;;;;;;;105.55;40.55;;;2.50;99.90;;;;;;5040351;28;20033;-81
2022/11/30 06:40:08;;;;;;;90.80;38.92;;;2.50;99.90;;;;;;5039658;28;20401;-82
2022/11/30 06:42:35;;;;;;;98.97;38.08;;;2.50;99.90;;;;;;5040360;28;20026;-82
2022/11/30 06:45:01;;;;;;;102.32;40.60;;;2.50;99.90;;;;;;5040004;28;20011;-82
2022/11/30 06:47:27;;;;;;;91.55;37.05;;;2.50;99.90;;;;;;5039861;28;20092;-82
2022/11/30 06:49:53;;;;;;;95.68;37.30;;;2.50;99.90;;;;;;5039719;28;20090;-82
2022/11/30 06:52:19;;;;;;;93.05;37.97;;;2.60;99.90;;;;;;5039008;28;20022;-83
2022/11/30 06:54:45;;;;;;;96.50;37.13;;;2.60;99.90;;;;;;5039390;28;20038;-83
2022/11/30 06:57:11;;;;;;;89.03;37.70;;;2.70;99.90;;;;;;5039990;28;20018;-83
2022/11/30 06:59:41;;;;;;;94.53;39.40;;;2.70;99.90;;;;;;5101543;22;20038;-84
2022/11/30 07:02:12;;;;;;;98.00;38.28;;;3.10;99.90;;;;;;5060354;28;20038;-83
2022/11/30 07:04:38;;;;;;;95.70;39.25;;;2.60;99.90;;;;;;5043264;28;20028;-83
2022/11/30 07:07:04;;;;;;;94.88;39.45;;;2.20;99.90;;;;;;5043143;28;20092;-83
2022/11/30 07:09:31;;;;;;;91.68;37.88;;;2.90;99.90;;;;;;5059515;28;20029;-83
2022/11/30 07:11:57;;;;;;;95.10;39.42;;;2.90;99.90;;;;;;5042998;28;20034;-83
2022/11/30 07:14:24;;;;;;;97.43;38.95;;;2.80;99.90;;;;;;5042260;28;20037;-82
2022/11/30 07:16:50;;;;;;;95.45;38.40;;;2.70;99.90;;;;;;5040440;28;20041;-83
2022/11/30 07:19:16;;;;;;;94.82;37.38;;;2.90;99.90;;;;;;5039306;28;20022;-83
2022/11/30 07:21:42;;;;;;;91.30;37.17;;;3.30;99.90;;;;;;5039304;28;20021;-83
2022/11/30 07:26:57;;;;;;;93.85;39.85;;;2.80;99.90;;;;;;5056484;28;20036;-82
2022/11/30 07:29:22;;;;;;;90.38;37.70;;;2.80;99.90;;;;;;5055646;28;20057;-83
2022/11/30 07:31:52;;;;;;;100.40;39.40;;;3.00;99.90;;;;;;5039669;28;20010;-83
2022/11/30 07:34:18;;;;;;;90.65;39.30;;;3.70;99.90;;;;;;5056493;28;20020;-82
2022/11/30 07:36:44;;;;;;;97.45;39.50;;;2.90;99.90;;;;;;5058196;28;20013;-83
2022/11/30 07:39:11;;;;;;;101.22;38.72;;;3.60;99.90;;;;;;5041717;28;20036;-83
2022/11/30 07:41:37;;;;;;;98.88;40.03;;;2.90;99.90;;;;;;5057694;28;20021;-82
2022/11/30 07:44:04;;;;;;;97.97;40.67;;;2.90;99.90;;;;;;5059349;28;20029;-83
2022/11/30 07:46:32;;;;;;;91.60;37.35;;;3.40;99.90;;;;;;5059147;28;20006;-84
2022/11/30 07:48:58;;;;;;;92.22;38.40;;;3.70;99.90;;;;;;5059376;28;20025;-82
2022/11/30 07:51:24;;;;;;;97.97;39.70;;;3.20;99.90;;;;;;5059000;28;20029;-83
2022/11/30 07:53:50;;;;;;;91.10;37.97;;;4.20;99.90;;;;;;5321585;22;20033;-83
2022/11/30 07:58:57;;;;;;;91.20;36.75;;;3.20;99.90;;;;;;5801648;22;20059;-83
2022/11/30 08:09:11;;;;;;;83.10;35.67;;;3.30;99.90;;;;;;5303280;22;20072;-83
2022/11/30 08:14:12;;;;;;;93.00;36.63;;;3.40;99.90;;;;;;5817803;23;20068;-84
2022/11/30 08:16:38;;;;;;;88.10;37.13;;;4.30;99.90;;;;;;5022353;28;20075;-83
2022/11/30 08:26:51;;;;;;;84.22;35.97;;;3.20;99.90;;;;;;5468832;22;20062;-82
2022/11/30 08:29:17;;;;;;;82.85;34.78;;;4.00;99.90;;;;;;5652226;23;20044;-82
2022/11/30 08:31:44;;;;;;;83.45;37.30;;;4.60;99.90;;;;;;5081967;28;20095;-82
2022/11/30 08:34:12;;;;;;;87.82;35.65;;;3.30;99.90;;;;;;5979541;22;20108;-83
2022/11/30 08:36:38;;;;;;;82.68;35.05;;;3.60;99.90;;;;;;5081863;28;20012;-83
2022/11/30 08:39:06;;;;;;;88.53;38.10;;;4.10;99.90;;;;;;5098694;28;20029;-83
2022/11/30 08:41:33;;;;;;;87.35;35.47;;;1.30;99.90;;;;;;5099010;28;20013;-82
2022/11/30 08:44:00;;;;;;;85.45;36.25;;;3.60;99.90;;;;;;5098961;28;20084;-83
2022/11/30 08:46:26;;;;;;;81.88;35.83;;;4.10;99.90;;;;;;5081465;28;20092;-84
2022/11/30 08:48:51;;;;;;;74.13;34.88;;;3.60;99.90;;;;;;5098639;28;20048;-83
2022/11/30 08:51:19;;;;;;;81.55;34.17;;;3.70;99.90;;;;;;5098246;28;20028;-83
2022/11/30 09:09:17;;;;;;;75.57;33.15;;;4.00;99.90;;;;;;5316190;23;20046;-84
2022/11/30 09:11:43;;;;;;;75.60;32.40;;;4.80;99.90;;;;;;5038160;28;20024;-83
2022/11/30 09:14:09;;;;;;;69.13;31.02;;;4.10;99.90;;;;;;5038101;28;20018;-83
2022/11/30 09:32:07;;;;;;;79.38;33.92;;;4.40;99.90;;;;;;5320965;23;20069;-82
2022/11/30 10:29:10;;;;;;;57.78;28.73;;;5.90;99.90;;;;;;6027019;22;20028;-83
2022/11/30 10:31:38;;;;;;;56.85;27.95;;;4.60;99.90;;;;;;5063365;28;20017;-84
2022/11/30 10:36:43;;;;;;;56.85;26.23;;;6.20;99.90;;;;;;6103890;22;20020;-83
2022/11/30 10:39:21;;;;;;;57.40;26.80;;;6.60;99.90;;;;;;5039347;28;20022;-84
2022/11/30 10:41:52;;;;;;;55.85;27.08;;;6.90;99.90;;;;;;5037602;28;20025;-83
2022/11/30 10:44:38;;;;;;;54.25;27.13;;;6.40;99.90;;;;;;5034924;28;20026;-83
2022/11/30 10:47:16;;;;;;;45.17;24.83;;;6.30;99.90;;;;;;5034777;28;20041;-82
2022/11/30 10:49:47;;;;;;;50.28;26.10;;;6.40;99.90;;;;;;5034239;28;20041;-82
2022/11/30 10:52:19;;;;;;;47.85;24.98;;;6.20;99.90;;;;;;5034091;28;20052;-83
2022/11/30 10:54:45;;;;;;;52.50;26.88;;;6.50;99.90;;;;;;5032660;28;20021;-83
2022/11/30 10:57:13;;;;;;;53.58;26.75;;;6.30;99.90;;;;;;5032236;28;20064;-83
2022/11/30 10:59:44;;;;;;;59.15;28.33;;;6.30;99.90;;;;;;5033596;28;20032;-83
2022/11/30 11:02:39;;;;;;;51.33;26.00;;;6.50;99.90;;;;;;5035665;28;20462;-83
2022/11/30 11:05:27;;;;;;;51.30;25.10;;;6.60;99.90;;;;;;5034339;28;20032;-83
2022/11/30 11:08:02;;;;;;;45.10;25.23;;;6.60;99.90;;;;;;5031986;28;20034;-83
2022/11/30 11:10:42;;;;;;;47.17;25.45;;;6.70;99.90;;;;;;5031051;28;20277;-82
2022/11/30 11:13:41;;;;;;;51.70;26.73;;;6.70;99.90;;;;;;5033768;28;20030;-82
2022/11/30 11:16:09;;;;;;;56.58;29.02;;;6.00;99.90;;;;;;5036757;28;20026;-82
2022/11/30 11:18:36;;;;;;;60.17;28.30;;;6.00;99.90;;;;;;5037125;28;20030;-83
2022/11/30 11:21:16;;;;;;;75.88;27.23;;;5.60;99.90;;;;;;5037403;28;20025;-83
2022/11/30 11:23:44;;;;;;;61.17;29.13;;;6.20;99.90;;;;;;5035367;28;20011;-83
2022/11/30 11:26:23;;;;;;;57.05;30.52;;;6.30;99.90;;;;;;5035988;28;20094;-82
2022/11/30 11:28:50;;;;;;;;;;;6.30;99.90;;;;;;5036204;28;20041;-82
2022/11/30 11:31:16;;;;;;;52.80;28.42;;;6.30;99.90;;;;;;5035115;28;19912;-83
2022/11/30 11:33:51;;;;;;;55.90;28.50;;;6.50;99.90;;;;;;5035063;28;20029;-83
2022/11/30 11:36:25;;;;;;;50.33;26.52;;;6.50;99.90;;;;;;5030518;28;20026;-83
2022/11/30 11:38:51;;;;;;;51.88;27.52;;;6.40;99.90;;;;;;5028906;28;20069;-83
2022/11/30 11:41:32;;;;;;;51.20;27.63;;;6.50;99.90;;;;;;5029038;28;20022;-83
2022/11/30 11:44:07;;;;;;;52.75;27.95;;;6.60;99.90;;;;;;5031017;28;20094;-82
2022/11/30 11:46:55;;;;;;;50.80;27.83;;;7.30;99.90;;;;;;5028859;28;20018;-82
2022/11/30 11:49:30;;;;;;;52.78;27.08;;;7.30;99.90;;;;;;5043678;28;20494;-82
2022/11/30 11:52:14;;;;;;;54.10;25.02;;;7.20;99.90;;;;;;5028110;28;20026;-82
2022/11/30 11:54:48;;;;;;;42.25;23.95;;;7.00;99.90;;;;;;5031361;28;20076;-83
2022/11/30 11:57:16;;;;;;;40.80;24.33;;;7.40;99.90;;;;;;5031913;28;20040;-83
2022/11/30 11:59:44;;;;;;;40.47;23.67;;;7.10;99.90;;;;;;5033651;28;20037;-83
2022/11/30 12:02:27;;;;;;;40.55;21.85;;;7.10;99.90;;;;;;5034052;28;20022;-83
2022/11/30 12:05:00;;;;;;;40.35;22.00;;;7.10;99.90;;;;;;5033792;28;20026;-83
2022/11/30 12:07:41;;;;;;;51.05;23.35;;;6.90;99.90;;;;;;5034072;28;20086;-83
2022/11/30 12:10:26;;;;;;;38.53;21.00;;;7.40;99.90;;;;;;5033054;28;20085;-82
2022/11/30 12:12:53;;;;;;;38.40;22.27;;;5.70;99.90;;;;;;5031738;28;20030;-82
2022/11/30 12:15:25;;;;;;;40.70;22.15;;;7.90;99.90;;;;;;5031235;28;20142;-82
2022/11/30 12:18:03;;;;;;;41.65;21.67;;;7.10;99.90;;;;;;5032114;28;20048;-82
2022/11/30 12:20:34;;;;;;;39.53;20.20;;;7.20;99.90;;;;;;5033395;28;20029;-82
2022/11/30 12:23:00;;;;;;;44.00;21.25;;;7.00;99.90;;;;;;5033225;28;20274;-83
2022/11/30 12:25:29;;;;;;;39.70;21.08;;;4.60;99.90;;;;;;5033540;28;20094;-82
2022/11/30 12:28:00;;;;;;;;;;;6.80;99.90;;;;;;5032757;28;20030;-83
2022/11/30 12:30:26;;;;;;;38.28;20.20;;;6.70;99.90;;;;;;5032654;28;19905;-82
2022/11/30 12:33:25;;;;;;;38.38;20.75;;;6.80;99.90;;;;;;5033931;28;20046;-83
2022/11/30 12:36:05;;;;;;;35.95;20.98;;;6.90;99.90;;;;;;5028619;28;20093;-81
2022/11/30 12:39:16;;;;;;;42.05;23.17;;;6.90;99.90;;;;;;5045153;28;20079;-81
2022/11/30 12:41:45;;;;;;;39.92;22.63;;;6.70;99.90;;;;;;4988296;28;20031;-81
2022/11/30 12:44:27;;;;;;;48.53;21.75;;;6.50;99.90;;;;;;5048976;28;20113;-81
2022/11/30 12:47:38;;;;;;;47.47;22.20;;;6.50;99.90;;;;;;5030021;28;20068;-81
2022/11/30 12:50:10;;;;;;;43.25;21.63;;;6.60;99.90;;;;;;5046170;28;20026;-82
2022/11/30 12:52:47;;;;;;;41.97;20.33;;;6.70;99.90;;;;;;5047760;28;20109;-81
2022/11/30 12:55:13;;;;;;;35.40;19.25;;;6.80;99.90;;;;;;5033393;28;20037;-81
2022/11/30 12:57:57;;;;;;;40.45;19.58;;;6.50;99.90;;;;;;5028276;28;20072;-80
2022/11/30 13:00:27;;;;;;;33.80;20.60;;;6.40;99.90;;;;;;5031735;28;20022;-79
2022/11/30 13:03:00;;;;;;;42.70;20.27;;;6.40;99.90;;;;;;5052733;28;20044;-84
2022/11/30 13:05:56;;;;;;;32.22;18.05;;;6.50;99.90;;;;;;5051825;28;20025;-82
2022/11/30 13:11:25;;;;;;;39.03;20.38;;;6.60;99.90;;;;;;5086261;28;20053;-79
2022/11/30 13:13:55;;;;;;;36.17;19.33;;;6.60;99.90;;;;;;5069606;28;20035;-80
2022/11/30 13:16:23;;;;;;;43.55;20.70;;;6.60;99.90;;;;;;5069839;28;20028;-80
2022/11/30 13:18:51;;;;;;;41.08;21.27;;;6.60;99.90;;;;;;5075184;28;20032;-83
2022/11/30 13:21:41;;;;;;;49.70;22.07;;;6.60;99.90;;;;;;5094849;28;20091;-80
2022/11/30 13:24:23;;;;;;;41.50;19.88;;;6.60;99.90;;;;;;5074917;28;20017;-83
2022/11/30 13:27:17;;;;;;;35.58;19.15;;;6.60;99.90;;;;;;5096172;28;20405;-83
2022/11/30 13:29:52;;;;;;;44.33;22.23;;;6.50;99.90;;;;;;5113731;23;20045;-83
2022/11/30 13:32:18;;;;;;;39.58;20.30;;;6.50;99.90;;;;;;5076767;28;20020;-83
2022/11/30 13:34:44;;;;;;;35.50;19.70;;;6.50;99.90;;;;;;5094837;28;20033;-82
2022/11/30 13:37:21;;;;;;;41.65;21.45;;;6.40;99.90;;;;;;5095294;28;20029;-83
2022/11/30 13:39:51;;;;;;;38.55;18.98;;;7.10;99.90;;;;;;5074527;28;20032;-82
2022/11/30 13:42:33;;;;;;;41.85;19.65;;;6.70;99.90;;;;;;5072729;28;20078;-81
2022/11/30 13:45:38;;;;;;;42.55;20.13;;;6.30;99.90;;;;;;5073250;28;20109;-81
2022/11/30 13:48:33;;;;;;;36.22;18.48;;;6.30;99.90;;;;;;5098742;28;20092;-83
2022/11/30 13:50:59;;;;;;;43.30;19.00;;;6.20;99.90;;;;;;5100198;28;20029;-83
2022/11/30 13:53:27;;;;;;;32.42;18.88;;;6.10;99.90;;;;;;5083042;28;20025;-83
2022/11/30 13:55:57;;;;;;;33.35;16.70;;;6.10;99.90;;;;;;5083616;28;20009;-84
2022/11/30 13:58:24;;;;;;;31.13;16.10;;;6.10;99.90;;;;;;5302092;22;20055;-78
2022/11/30 14:01:24;;;;;;;28.08;15.10;;;6.10;99.90;;;;;;5687089;23;20051;-83
2022/11/30 14:09:13;;;;;;;25.80;13.82;;;6.00;99.90;;;;;;6065936;22;20874;-83
2022/11/30 14:16:55;;;;;;;26.73;12.75;;;5.90;99.90;;;;;;5733235;22;20032;-84
2022/11/30 14:19:22;;;;;;;23.95;12.07;;;4.80;99.90;;;;;;5100883;28;20052;-82
2022/11/30 14:21:48;;;;;;;20.73;11.10;;;5.80;99.90;;;;;;5083311;28;20025;-83
2022/11/30 14:24:19;;;;;;;22.38;11.75;;;6.10;99.90;;;;;;5083765;28;20048;-84
2022/11/30 14:29:26;;;;;;;25.05;12.93;;;5.80;99.90;;;;;;5550304;22;20060;-84
2022/11/30 14:32:12;;;;;;;23.83;12.30;;;5.80;99.90;;;;;;5330637;22;20049;-85
2022/11/30 14:34:49;;;;;;;19.88;11.30;;;5.70;99.90;;;;;;5031954;28;20028;-81
2022/11/30 14:37:20;;;;;;;21.10;11.88;;;5.70;99.90;;;;;;5038622;28;20021;-84
2022/11/30 14:39:47;;;;;;;24.08;11.80;;;5.60;99.90;;;;;;5035217;28;20033;-78
2022/11/30 14:42:27;;;;;;;25.20;12.25;;;5.60;99.90;;;;;;5024590;28;20028;-78
2022/11/30 14:44:53;;;;;;;22.60;11.65;;;5.60;99.90;;;;;;5053428;28;20026;-81
2022/11/30 14:47:31;;;;;;;25.75;12.98;;;5.60;99.90;;;;;;5034820;28;20033;-80
2022/11/30 14:50:01;;;;;;;29.02;13.43;;;5.50;99.90;;;;;;5104581;22;20075;-78
2022/11/30 14:52:57;;;;;;;30.98;11.82;;;5.50;99.90;;;;;;5044485;28;20018;-80
2022/11/30 14:55:58;;;;;;;28.08;12.20;;;5.50;99.90;;;;;;5038793;28;20017;-83
2022/11/30 14:58:49;;;;;;;22.90;11.18;;;5.50;99.90;;;;;;5024832;28;20057;-79
2022/11/30 15:01:27;;;;;;;31.83;11.57;;;5.50;99.90;;;;;;5029156;28;20030;-76